Terminal Aerodrome Forecast
Issued by NWS Honolulu, HI

Home | Current Version | Previous Version | Text Only | Print | Product List | Glossary On
Versions: 1 2 3 4 5 6 7 8 9 10 11 12 13 14 15 16 17 18 19 20 21 22 23 24
000
FTPA31 PHFO 182102 AAA
TAFHNL
TAF AMD
PHNL 182102Z 1821/1924 05013G20KT P6SM FEW025 SCT050
     FM190600 05008KT P6SM FEW025 SCT050
     FM192000 06012G19KT P6SM FEW025 SCT050=

USA.gov is the U.S. government's official web portal to all federal, state and local government web resources and services.